sensor_id;sensor_type;location;lat;lon;timestamp;temperature;humidity
52016;DHT22;38032;53.326;6.472;2023-05-10T00:01:26;14.50;99.90
52016;DHT22;38032;53.326;6.472;2023-05-10T00:03:52;14.50;99.90
52016;DHT22;38032;53.326;6.472;2023-05-10T00:06:18;14.50;99.90
52016;DHT22;38032;53.326;6.472;2023-05-10T00:08:45;14.50;99.90
52016;DHT22;38032;53.326;6.472;2023-05-10T00:11:11;14.50;99.90
52016;DHT22;38032;53.326;6.472;2023-05-10T00:13:36;14.50;99.90
52016;DHT22;38032;53.326;6.472;2023-05-10T00:16:02;14.40;99.90
52016;DHT22;38032;53.326;6.472;2023-05-10T00:18:28;14.40;99.90
52016;DHT22;38032;53.326;6.472;2023-05-10T00:20:54;14.40;99.90
52016;DHT22;38032;53.326;6.472;2023-05-10T00:23:20;14.40;99.90
52016;DHT22;38032;53.326;6.472;2023-05-10T00:25:46;14.40;99.90
52016;DHT22;38032;53.326;6.472;2023-05-10T00:28:11;14.40;99.90
52016;DHT22;38032;53.326;6.472;2023-05-10T00:30:37;14.30;99.90
52016;DHT22;38032;53.326;6.472;2023-05-10T00:33:03;14.30;99.90
52016;DHT22;38032;53.326;6.472;2023-05-10T00:35:29;14.30;99.90
52016;DHT22;38032;53.326;6.472;2023-05-10T00:37:55;14.30;99.90
52016;DHT22;38032;53.326;6.472;2023-05-10T00:40:20;14.30;99.90
52016;DHT22;38032;53.326;6.472;2023-05-10T00:42:46;14.30;99.90
52016;DHT22;38032;53.326;6.472;2023-05-10T00:45:13;14.30;99.90
52016;DHT22;38032;53.326;6.472;2023-05-10T00:47:39;14.30;99.90
52016;DHT22;38032;53.326;6.472;2023-05-10T00:50:06;14.20;99.90
52016;DHT22;38032;53.326;6.472;2023-05-10T00:52:32;14.30;99.90
52016;DHT22;38032;53.326;6.472;2023-05-10T00:54:58;14.30;99.90
52016;DHT22;38032;53.326;6.472;2023-05-10T00:57:24;14.30;99.90
52016;DHT22;38032;53.326;6.472;2023-05-10T00:59:50;14.20;99.90
52016;DHT22;38032;53.326;6.472;2023-05-10T01:02:16;14.20;99.90
52016;DHT22;38032;53.326;6.472;2023-05-10T01:04:43;14.20;99.90
52016;DHT22;38032;53.326;6.472;2023-05-10T01:07:09;14.20;99.90
52016;DHT22;38032;53.326;6.472;2023-05-10T01:09:34;14.20;99.90
52016;DHT22;38032;53.326;6.472;2023-05-10T01:12:01;14.20;99.90
52016;DHT22;38032;53.326;6.472;2023-05-10T01:14:27;14.10;99.90
52016;DHT22;38032;53.326;6.472;2023-05-10T01:16:54;14.10;99.90
52016;DHT22;38032;53.326;6.472;2023-05-10T01:19:25;14.10;99.90
52016;DHT22;38032;53.326;6.472;2023-05-10T01:22:12;14.10;99.90
52016;DHT22;38032;53.326;6.472;2023-05-10T01:25:01;14.10;99.90
52016;DHT22;38032;53.326;6.472;2023-05-10T01:27:47;14.10;99.90
52016;DHT22;38032;53.326;6.472;2023-05-10T01:30:34;14.10;99.90
52016;DHT22;38032;53.326;6.472;2023-05-10T01:33:15;14.10;99.90
52016;DHT22;38032;53.326;6.472;2023-05-10T01:38:38;14.10;99.90
52016;DHT22;38032;53.326;6.472;2023-05-10T01:41:24;14.10;99.90
52016;DHT22;38032;53.326;6.472;2023-05-10T01:46:36;14.00;99.90
52016;DHT22;38032;53.326;6.472;2023-05-10T01:49:07;14.00;99.90
52016;DHT22;38032;53.326;6.472;2023-05-10T01:51:40;14.00;99.90
52016;DHT22;38032;53.326;6.472;2023-05-10T01:54:09;14.00;99.90
52016;DHT22;38032;53.326;6.472;2023-05-10T01:56:36;14.00;99.90
52016;DHT22;38032;53.326;6.472;2023-05-10T01:59:06;14.00;99.90
52016;DHT22;38032;53.326;6.472;2023-05-10T02:01:36;13.90;99.90
52016;DHT22;38032;53.326;6.472;2023-05-10T02:04:05;13.90;99.90
52016;DHT22;38032;53.326;6.472;2023-05-10T02:06:32;14.00;99.90
52016;DHT22;38032;53.326;6.472;2023-05-10T02:09:01;13.90;99.90
52016;DHT22;38032;53.326;6.472;2023-05-10T02:11:28;13.90;99.90
52016;DHT22;38032;53.326;6.472;2023-05-10T02:13:55;13.90;99.90
52016;DHT22;38032;53.326;6.472;2023-05-10T02:16:25;13.90;99.90
52016;DHT22;38032;53.326;6.472;2023-05-10T02:18:53;13.90;99.90
52016;DHT22;38032;53.326;6.472;2023-05-10T02:21:21;13.90;99.90
52016;DHT22;38032;53.326;6.472;2023-05-10T02:23:48;13.90;99.90
52016;DHT22;38032;53.326;6.472;2023-05-10T02:26:17;13.90;99.90
52016;DHT22;38032;53.326;6.472;2023-05-10T02:28:43;13.90;99.90
52016;DHT22;38032;53.326;6.472;2023-05-10T02:31:11;13.90;99.90
52016;DHT22;38032;53.326;6.472;2023-05-10T02:33:38;13.80;99.90
52016;DHT22;38032;53.326;6.472;2023-05-10T02:36:07;13.80;99.90
52016;DHT22;38032;53.326;6.472;2023-05-10T02:38:35;13.80;99.90
52016;DHT22;38032;53.326;6.472;2023-05-10T02:41:03;13.80;99.90
52016;DHT22;38032;53.326;6.472;2023-05-10T02:43:32;13.90;99.90
52016;DHT22;38032;53.326;6.472;2023-05-10T02:45:59;13.70;99.90
52016;DHT22;38032;53.326;6.472;2023-05-10T02:48:24;13.90;99.90
52016;DHT22;38032;53.326;6.472;2023-05-10T02:50:52;13.80;99.90
52016;DHT22;38032;53.326;6.472;2023-05-10T02:53:26;13.90;99.90
52016;DHT22;38032;53.326;6.472;2023-05-10T02:55:58;13.90;99.90
52016;DHT22;38032;53.326;6.472;2023-05-10T02:58:25;13.80;99.90
52016;DHT22;38032;53.326;6.472;2023-05-10T03:00:52;13.60;99.90
52016;DHT22;38032;53.326;6.472;2023-05-10T03:03:19;13.70;99.90
52016;DHT22;38032;53.326;6.472;2023-05-10T03:05:45;13.70;99.90
52016;DHT22;38032;53.326;6.472;2023-05-10T03:08:11;13.60;99.90
52016;DHT22;38032;53.326;6.472;2023-05-10T03:10:42;13.70;99.90
52016;DHT22;38032;53.326;6.472;2023-05-10T03:13:21;13.70;99.90
52016;DHT22;38032;53.326;6.472;2023-05-10T03:16:06;13.70;99.90
52016;DHT22;38032;53.326;6.472;2023-05-10T03:18:50;13.70;99.90
52016;DHT22;38032;53.326;6.472;2023-05-10T03:21:18;13.70;99.90
52016;DHT22;38032;53.326;6.472;2023-05-10T03:23:50;14.10;99.90
52016;DHT22;38032;53.326;6.472;2023-05-10T03:26:22;13.80;99.90
52016;DHT22;38032;53.326;6.472;2023-05-10T03:28:49;13.60;99.90
52016;DHT22;38032;53.326;6.472;2023-05-10T03:31:17;13.60;99.90
52016;DHT22;38032;53.326;6.472;2023-05-10T03:33:47;13.60;99.90
52016;DHT22;38032;53.326;6.472;2023-05-10T03:36:14;13.60;99.90
52016;DHT22;38032;53.326;6.472;2023-05-10T03:38:40;13.60;99.90
52016;DHT22;38032;53.326;6.472;2023-05-10T03:41:05;13.60;99.90
52016;DHT22;38032;53.326;6.472;2023-05-10T03:43:31;13.50;99.90
52016;DHT22;38032;53.326;6.472;2023-05-10T03:45:57;13.50;99.90
52016;DHT22;38032;53.326;6.472;2023-05-10T03:48:23;13.50;99.90
52016;DHT22;38032;53.326;6.472;2023-05-10T03:50:49;13.60;99.90
52016;DHT22;38032;53.326;6.472;2023-05-10T03:53:15;13.50;99.90
52016;DHT22;38032;53.326;6.472;2023-05-10T03:55:41;13.50;99.90
52016;DHT22;38032;53.326;6.472;2023-05-10T03:58:07;13.50;99.90
52016;DHT22;38032;53.326;6.472;2023-05-10T04:00:36;13.50;99.90
52016;DHT22;38032;53.326;6.472;2023-05-10T04:03:02;13.50;99.90
52016;DHT22;38032;53.326;6.472;2023-05-10T04:05:28;13.50;99.90
52016;DHT22;38032;53.326;6.472;2023-05-10T04:07:54;13.50;99.90
52016;DHT22;38032;53.326;6.472;2023-05-10T04:10:20;13.50;99.90
52016;DHT22;38032;53.326;6.472;2023-05-10T04:12:46;13.50;99.90
52016;DHT22;38032;53.326;6.472;2023-05-10T04:15:12;13.40;99.90
52016;DHT22;38032;53.326;6.472;2023-05-10T04:17:38;13.50;99.90
52016;DHT22;38032;53.326;6.472;2023-05-10T04:20:04;13.40;99.90
52016;DHT22;38032;53.326;6.472;2023-05-10T04:22:32;13.50;99.90
52016;DHT22;38032;53.326;6.472;2023-05-10T04:24:57;13.50;99.90
52016;DHT22;38032;53.326;6.472;2023-05-10T04:27:23;13.50;99.90
52016;DHT22;38032;53.326;6.472;2023-05-10T04:29:49;13.50;99.90
52016;DHT22;38032;53.326;6.472;2023-05-10T04:32:15;13.50;99.90
52016;DHT22;38032;53.326;6.472;2023-05-10T04:34:43;13.50;99.90
52016;DHT22;38032;53.326;6.472;2023-05-10T04:37:09;13.50;99.90
52016;DHT22;38032;53.326;6.472;2023-05-10T04:39:35;13.50;99.90
52016;DHT22;38032;53.326;6.472;2023-05-10T04:42:02;13.50;99.90
52016;DHT22;38032;53.326;6.472;2023-05-10T04:44:29;13.50;99.90
52016;DHT22;38032;53.326;6.472;2023-05-10T04:46:55;13.50;99.90
52016;DHT22;38032;53.326;6.472;2023-05-10T04:49:21;13.50;99.90
52016;DHT22;38032;53.326;6.472;2023-05-10T04:51:47;13.50;99.90
52016;DHT22;38032;53.326;6.472;2023-05-10T04:54:13;13.50;99.90
52016;DHT22;38032;53.326;6.472;2023-05-10T04:56:38;13.50;99.90
52016;DHT22;38032;53.326;6.472;2023-05-10T04:59:04;13.50;99.90
52016;DHT22;38032;53.326;6.472;2023-05-10T05:01:30;13.50;99.90
52016;DHT22;38032;53.326;6.472;2023-05-10T05:03:56;13.50;99.90
52016;DHT22;38032;53.326;6.472;2023-05-10T05:06:22;13.50;99.90
52016;DHT22;38032;53.326;6.472;2023-05-10T05:08:50;13.50;99.90
52016;DHT22;38032;53.326;6.472;2023-05-10T05:11:17;13.50;99.90
52016;DHT22;38032;53.326;6.472;2023-05-10T05:13:43;13.50;99.90
52016;DHT22;38032;53.326;6.472;2023-05-10T05:16:09;13.50;99.90
52016;DHT22;38032;53.326;6.472;2023-05-10T05:18:36;13.50;99.90
52016;DHT22;38032;53.326;6.472;2023-05-10T05:21:02;13.50;99.90
52016;DHT22;38032;53.326;6.472;2023-05-10T05:23:28;13.60;99.90
52016;DHT22;38032;53.326;6.472;2023-05-10T05:25:54;13.60;99.90
52016;DHT22;38032;53.326;6.472;2023-05-10T05:28:20;13.60;99.90
52016;DHT22;38032;53.326;6.472;2023-05-10T05:30:46;13.60;99.90
52016;DHT22;38032;53.326;6.472;2023-05-10T05:33:13;13.60;99.90
52016;DHT22;38032;53.326;6.472;2023-05-10T05:35:41;13.60;99.90
52016;DHT22;38032;53.326;6.472;2023-05-10T05:38:08;13.60;99.90
52016;DHT22;38032;53.326;6.472;2023-05-10T05:40:34;13.60;99.90
52016;DHT22;38032;53.326;6.472;2023-05-10T05:43:00;13.70;99.90
52016;DHT22;38032;53.326;6.472;2023-05-10T05:45:26;13.70;99.90
52016;DHT22;38032;53.326;6.472;2023-05-10T05:47:51;13.70;99.90
52016;DHT22;38032;53.326;6.472;2023-05-10T05:50:17;13.70;99.90
52016;DHT22;38032;53.326;6.472;2023-05-10T05:52:43;13.70;99.90
52016;DHT22;38032;53.326;6.472;2023-05-10T05:55:09;13.60;99.90
52016;DHT22;38032;53.326;6.472;2023-05-10T05:57:35;13.60;99.90
52016;DHT22;38032;53.326;6.472;2023-05-10T06:00:01;13.60;99.90
52016;DHT22;38032;53.326;6.472;2023-05-10T06:02:28;13.60;99.90
52016;DHT22;38032;53.326;6.472;2023-05-10T06:04:54;13.70;99.90
52016;DHT22;38032;53.326;6.472;2023-05-10T06:07:19;13.60;99.90
52016;DHT22;38032;53.326;6.472;2023-05-10T06:09:45;13.60;99.90
52016;DHT22;38032;53.326;6.472;2023-05-10T06:12:11;13.60;99.90
52016;DHT22;38032;53.326;6.472;2023-05-10T06:14:37;13.60;99.90
52016;DHT22;38032;53.326;6.472;2023-05-10T06:17:03;13.60;99.90
52016;DHT22;38032;53.326;6.472;2023-05-10T06:19:30;13.60;99.90
52016;DHT22;38032;53.326;6.472;2023-05-10T06:21:56;13.60;99.90
52016;DHT22;38032;53.326;6.472;2023-05-10T06:24:22;13.60;99.90
52016;DHT22;38032;53.326;6.472;2023-05-10T06:26:48;13.60;99.90
52016;DHT22;38032;53.326;6.472;2023-05-10T06:29:15;13.60;99.90
52016;DHT22;38032;53.326;6.472;2023-05-10T06:31:41;13.60;99.90
52016;DHT22;38032;53.326;6.472;2023-05-10T06:34:07;13.60;99.90
52016;DHT22;38032;53.326;6.472;2023-05-10T06:36:34;13.60;99.90
52016;DHT22;38032;53.326;6.472;2023-05-10T06:38:59;13.60;99.90
52016;DHT22;38032;53.326;6.472;2023-05-10T06:41:25;13.60;99.90
52016;DHT22;38032;53.326;6.472;2023-05-10T06:43:51;13.60;99.90
52016;DHT22;38032;53.326;6.472;2023-05-10T06:46:17;13.50;99.90
52016;DHT22;38032;53.326;6.472;2023-05-10T06:48:43;13.60;99.90
52016;DHT22;38032;53.326;6.472;2023-05-10T06:51:09;13.60;99.90
52016;DHT22;38032;53.326;6.472;2023-05-10T06:53:34;13.60;99.90
52016;DHT22;38032;53.326;6.472;2023-05-10T06:56:00;13.60;99.90
52016;DHT22;38032;53.326;6.472;2023-05-10T06:58:28;13.60;99.90
52016;DHT22;38032;53.326;6.472;2023-05-10T07:00:53;13.70;99.90
52016;DHT22;38032;53.326;6.472;2023-05-10T07:03:19;13.70;99.90
52016;DHT22;38032;53.326;6.472;2023-05-10T07:05:45;13.70;99.90
52016;DHT22;38032;53.326;6.472;2023-05-10T07:08:11;13.70;99.90
52016;DHT22;38032;53.326;6.472;2023-05-10T07:10:37;13.80;99.90
52016;DHT22;38032;53.326;6.472;2023-05-10T07:13:03;13.80;99.90
52016;DHT22;38032;53.326;6.472;2023-05-10T07:15:29;13.80;99.90
52016;DHT22;38032;53.326;6.472;2023-05-10T07:17:54;13.80;99.90
52016;DHT22;38032;53.326;6.472;2023-05-10T07:20:20;13.80;99.90
52016;DHT22;38032;53.326;6.472;2023-05-10T07:22:46;13.90;99.90
52016;DHT22;38032;53.326;6.472;2023-05-10T07:25:12;13.90;99.90
52016;DHT22;38032;53.326;6.472;2023-05-10T07:27:38;13.90;99.90
52016;DHT22;38032;53.326;6.472;2023-05-10T07:30:04;13.90;99.90
52016;DHT22;38032;53.326;6.472;2023-05-10T07:32:30;14.00;99.90
52016;DHT22;38032;53.326;6.472;2023-05-10T07:34:56;14.00;99.90
52016;DHT22;38032;53.326;6.472;2023-05-10T07:37:23;14.00;99.90
52016;DHT22;38032;53.326;6.472;2023-05-10T07:39:48;14.10;99.90
52016;DHT22;38032;53.326;6.472;2023-05-10T07:42:14;14.10;99.90
52016;DHT22;38032;53.326;6.472;2023-05-10T07:44:40;14.10;99.90
52016;DHT22;38032;53.326;6.472;2023-05-10T07:47:07;14.10;99.90
52016;DHT22;38032;53.326;6.472;2023-05-10T07:49:33;14.20;99.90
52016;DHT22;38032;53.326;6.472;2023-05-10T07:51:58;14.20;99.90
52016;DHT22;38032;53.326;6.472;2023-05-10T07:54:25;14.20;99.90
52016;DHT22;38032;53.326;6.472;2023-05-10T07:56:51;14.20;99.90
52016;DHT22;38032;53.326;6.472;2023-05-10T07:59:17;14.30;99.90
52016;DHT22;38032;53.326;6.472;2023-05-10T08:01:43;14.30;99.90
52016;DHT22;38032;53.326;6.472;2023-05-10T08:04:10;14.30;99.90
52016;DHT22;38032;53.326;6.472;2023-05-10T08:06:36;14.30;99.90
52016;DHT22;38032;53.326;6.472;2023-05-10T08:09:02;14.40;99.90
52016;DHT22;38032;53.326;6.472;2023-05-10T08:11:28;14.40;99.90
52016;DHT22;38032;53.326;6.472;2023-05-10T08:13:54;14.40;99.90
52016;DHT22;38032;53.326;6.472;2023-05-10T08:16:20;14.50;99.90
52016;DHT22;38032;53.326;6.472;2023-05-10T08:18:47;14.50;99.90
52016;DHT22;38032;53.326;6.472;2023-05-10T08:21:13;14.50;99.90
52016;DHT22;38032;53.326;6.472;2023-05-10T08:23:40;14.60;99.90
52016;DHT22;38032;53.326;6.472;2023-05-10T08:26:06;14.60;99.90
52016;DHT22;38032;53.326;6.472;2023-05-10T08:28:32;14.60;99.90
52016;DHT22;38032;53.326;6.472;2023-05-10T08:30:58;14.70;99.90
52016;DHT22;38032;53.326;6.472;2023-05-10T08:33:24;14.70;99.90
52016;DHT22;38032;53.326;6.472;2023-05-10T08:35:50;14.80;99.90
52016;DHT22;38032;53.326;6.472;2023-05-10T08:38:16;14.80;99.90
52016;DHT22;38032;53.326;6.472;2023-05-10T08:40:43;14.80;99.90
52016;DHT22;38032;53.326;6.472;2023-05-10T08:43:12;14.80;99.90
52016;DHT22;38032;53.326;6.472;2023-05-10T08:45:42;14.80;99.90
52016;DHT22;38032;53.326;6.472;2023-05-10T08:48:09;14.90;99.90
52016;DHT22;38032;53.326;6.472;2023-05-10T08:50:37;14.90;99.90
52016;DHT22;38032;53.326;6.472;2023-05-10T08:53:05;14.90;99.90
52016;DHT22;38032;53.326;6.472;2023-05-10T08:55:33;15.00;99.90
52016;DHT22;38032;53.326;6.472;2023-05-10T08:58:00;15.00;99.90
52016;DHT22;38032;53.326;6.472;2023-05-10T09:00:26;15.00;99.90
52016;DHT22;38032;53.326;6.472;2023-05-10T09:02:53;15.10;99.90
52016;DHT22;38032;53.326;6.472;2023-05-10T09:05:19;15.20;99.90
52016;DHT22;38032;53.326;6.472;2023-05-10T09:07:45;15.20;99.90
52016;DHT22;38032;53.326;6.472;2023-05-10T09:10:11;15.30;99.90
52016;DHT22;38032;53.326;6.472;2023-05-10T09:12:37;15.30;99.90
52016;DHT22;38032;53.326;6.472;2023-05-10T09:15:04;15.50;99.90
52016;DHT22;38032;53.326;6.472;2023-05-10T09:17:31;15.50;99.90
52016;DHT22;38032;53.326;6.472;2023-05-10T09:19:59;15.80;99.90
52016;DHT22;38032;53.326;6.472;2023-05-10T09:22:25;15.60;99.90
52016;DHT22;38032;53.326;6.472;2023-05-10T09:25:09;15.70;99.90
52016;DHT22;38032;53.326;6.472;2023-05-10T09:27:38;15.80;99.90
52016;DHT22;38032;53.326;6.472;2023-05-10T09:30:05;15.90;99.90
52016;DHT22;38032;53.326;6.472;2023-05-10T09:32:42;15.90;99.90
52016;DHT22;38032;53.326;6.472;2023-05-10T09:35:10;16.10;99.90
52016;DHT22;38032;53.326;6.472;2023-05-10T09:37:39;16.20;99.90
52016;DHT22;38032;53.326;6.472;2023-05-10T09:40:08;16.20;99.90
52016;DHT22;38032;53.326;6.472;2023-05-10T09:42:36;16.40;99.90
52016;DHT22;38032;53.326;6.472;2023-05-10T09:45:08;16.50;99.90
52016;DHT22;38032;53.326;6.472;2023-05-10T09:47:35;16.60;99.90
52016;DHT22;38032;53.326;6.472;2023-05-10T09:50:03;16.80;99.90
52016;DHT22;38032;53.326;6.472;2023-05-10T09:52:30;16.80;99.90
52016;DHT22;38032;53.326;6.472;2023-05-10T09:54:56;16.90;99.90
52016;DHT22;38032;53.326;6.472;2023-05-10T09:57:23;16.90;99.90
52016;DHT22;38032;53.326;6.472;2023-05-10T09:59:50;17.10;99.90
52016;DHT22;38032;53.326;6.472;2023-05-10T10:02:17;17.20;99.90
52016;DHT22;38032;53.326;6.472;2023-05-10T10:04:43;17.40;99.90
52016;DHT22;38032;53.326;6.472;2023-05-10T10:07:10;17.40;99.90
52016;DHT22;38032;53.326;6.472;2023-05-10T10:09:36;17.50;99.90
52016;DHT22;38032;53.326;6.472;2023-05-10T10:12:02;17.60;99.90
52016;DHT22;38032;53.326;6.472;2023-05-10T10:14:29;17.60;99.90
52016;DHT22;38032;53.326;6.472;2023-05-10T10:16:55;17.70;99.90
52016;DHT22;38032;53.326;6.472;2023-05-10T10:19:21;17.70;99.90
52016;DHT22;38032;53.326;6.472;2023-05-10T10:21:49;17.70;99.90
52016;DHT22;38032;53.326;6.472;2023-05-10T10:24:15;17.70;99.90
52016;DHT22;38032;53.326;6.472;2023-05-10T10:26:42;17.70;99.90
52016;DHT22;38032;53.326;6.472;2023-05-10T10:29:21;17.70;99.90
52016;DHT22;38032;53.326;6.472;2023-05-10T10:32:07;17.70;99.90
52016;DHT22;38032;53.326;6.472;2023-05-10T10:34:35;17.70;99.90
52016;DHT22;38032;53.326;6.472;2023-05-10T10:37:05;17.70;99.90
52016;DHT22;38032;53.326;6.472;2023-05-10T10:39:32;17.70;99.90
52016;DHT22;38032;53.326;6.472;2023-05-10T10:41:59;17.60;99.90
52016;DHT22;38032;53.326;6.472;2023-05-10T10:44:34;17.60;99.90
52016;DHT22;38032;53.326;6.472;2023-05-10T10:47:07;17.60;99.90
52016;DHT22;38032;53.326;6.472;2023-05-10T10:49:42;17.60;99.90
52016;DHT22;38032;53.326;6.472;2023-05-10T10:52:27;17.60;99.90
52016;DHT22;38032;53.326;6.472;2023-05-10T10:55:01;17.60;99.90
52016;DHT22;38032;53.326;6.472;2023-05-10T10:57:31;17.50;99.90
52016;DHT22;38032;53.326;6.472;2023-05-10T11:03:06;17.50;99.90
52016;DHT22;38032;53.326;6.472;2023-05-10T11:08:11;17.50;99.90
52016;DHT22;38032;53.326;6.472;2023-05-10T11:10:38;17.50;99.90
52016;DHT22;38032;53.326;6.472;2023-05-10T11:13:07;17.60;99.90
52016;DHT22;38032;53.326;6.472;2023-05-10T11:15:36;17.60;99.90
52016;DHT22;38032;53.326;6.472;2023-05-10T11:18:21;17.70;99.90
52016;DHT22;38032;53.326;6.472;2023-05-10T11:20:51;17.80;99.90
52016;DHT22;38032;53.326;6.472;2023-05-10T11:23:17;17.90;99.90
52016;DHT22;38032;53.326;6.472;2023-05-10T11:25:44;18.00;99.90
52016;DHT22;38032;53.326;6.472;2023-05-10T11:28:13;18.00;99.90
52016;DHT22;38032;53.326;6.472;2023-05-10T11:30:39;18.10;99.90
52016;DHT22;38032;53.326;6.472;2023-05-10T11:33:06;18.20;99.90
52016;DHT22;38032;53.326;6.472;2023-05-10T11:35:38;18.30;99.90
52016;DHT22;38032;53.326;6.472;2023-05-10T11:38:07;18.40;99.90
52016;DHT22;38032;53.326;6.472;2023-05-10T11:40:33;18.60;99.90
52016;DHT22;38032;53.326;6.472;2023-05-10T11:42:59;18.70;99.90
52016;DHT22;38032;53.326;6.472;2023-05-10T11:45:26;18.80;99.90
52016;DHT22;38032;53.326;6.472;2023-05-10T11:47:53;18.90;99.90
52016;DHT22;38032;53.326;6.472;2023-05-10T11:50:19;19.00;99.90
52016;DHT22;38032;53.326;6.472;2023-05-10T11:52:44;19.10;99.90
52016;DHT22;38032;53.326;6.472;2023-05-10T11:55:10;19.20;99.90
52016;DHT22;38032;53.326;6.472;2023-05-10T11:57:37;19.40;99.90
52016;DHT22;38032;53.326;6.472;2023-05-10T12:00:04;19.50;99.90
52016;DHT22;38032;53.326;6.472;2023-05-10T12:02:30;19.50;99.90
52016;DHT22;38032;53.326;6.472;2023-05-10T12:04:56;19.60;99.90
52016;DHT22;38032;53.326;6.472;2023-05-10T12:07:22;19.60;99.90
52016;DHT22;38032;53.326;6.472;2023-05-10T12:10:08;19.60;99.90
52016;DHT22;38032;53.326;6.472;2023-05-10T12:12:39;19.60;99.90
52016;DHT22;38032;53.326;6.472;2023-05-10T12:15:11;19.50;99.90
52016;DHT22;38032;53.326;6.472;2023-05-10T12:17:38;19.50;99.90
52016;DHT22;38032;53.326;6.472;2023-05-10T12:20:23;19.50;99.90
52016;DHT22;38032;53.326;6.472;2023-05-10T12:22:53;19.50;99.90
52016;DHT22;38032;53.326;6.472;2023-05-10T12:25:20;19.60;99.90
52016;DHT22;38032;53.326;6.472;2023-05-10T12:27:53;19.60;99.90
52016;DHT22;38032;53.326;6.472;2023-05-10T12:30:27;19.60;99.90
52016;DHT22;38032;53.326;6.472;2023-05-10T12:32:58;19.60;99.90
52016;DHT22;38032;53.326;6.472;2023-05-10T12:35:25;19.60;99.90
52016;DHT22;38032;53.326;6.472;2023-05-10T12:37:51;19.60;99.90
52016;DHT22;38032;53.326;6.472;2023-05-10T12:40:17;19.60;99.90
52016;DHT22;38032;53.326;6.472;2023-05-10T12:42:43;19.60;99.90
52016;DHT22;38032;53.326;6.472;2023-05-10T12:45:11;19.50;99.90
52016;DHT22;38032;53.326;6.472;2023-05-10T12:47:37;19.50;99.90
52016;DHT22;38032;53.326;6.472;2023-05-10T12:50:04;19.40;99.90
52016;DHT22;38032;53.326;6.472;2023-05-10T12:52:30;19.40;99.90
52016;DHT22;38032;53.326;6.472;2023-05-10T12:54:58;19.30;99.90
52016;DHT22;38032;53.326;6.472;2023-05-10T12:57:24;19.30;99.90
52016;DHT22;38032;53.326;6.472;2023-05-10T12:59:50;19.30;99.90
52016;DHT22;38032;53.326;6.472;2023-05-10T13:02:16;19.20;99.90
52016;DHT22;38032;53.326;6.472;2023-05-10T13:04:44;19.20;99.90
52016;DHT22;38032;53.326;6.472;2023-05-10T13:07:10;19.20;99.90
52016;DHT22;38032;53.326;6.472;2023-05-10T13:09:36;19.10;99.90
52016;DHT22;38032;53.326;6.472;2023-05-10T13:12:02;19.10;99.90
52016;DHT22;38032;53.326;6.472;2023-05-10T13:14:29;19.10;99.90
52016;DHT22;38032;53.326;6.472;2023-05-10T13:16:55;19.20;99.90
52016;DHT22;38032;53.326;6.472;2023-05-10T13:19:21;19.20;99.90
52016;DHT22;38032;53.326;6.472;2023-05-10T13:21:47;19.30;99.90
52016;DHT22;38032;53.326;6.472;2023-05-10T13:24:13;19.30;99.90
52016;DHT22;38032;53.326;6.472;2023-05-10T13:26:40;19.40;99.90
52016;DHT22;38032;53.326;6.472;2023-05-10T13:29:06;19.40;99.90
52016;DHT22;38032;53.326;6.472;2023-05-10T13:31:34;19.40;99.90
52016;DHT22;38032;53.326;6.472;2023-05-10T13:34:00;19.50;99.90
52016;DHT22;38032;53.326;6.472;2023-05-10T13:36:26;19.50;99.90
52016;DHT22;38032;53.326;6.472;2023-05-10T13:38:52;19.50;99.90
52016;DHT22;38032;53.326;6.472;2023-05-10T13:41:17;19.50;99.90
52016;DHT22;38032;53.326;6.472;2023-05-10T13:43:43;19.50;99.90
52016;DHT22;38032;53.326;6.472;2023-05-10T13:46:09;19.50;99.90
52016;DHT22;38032;53.326;6.472;2023-05-10T13:48:35;19.50;99.90
52016;DHT22;38032;53.326;6.472;2023-05-10T13:51:03;19.50;99.90
52016;DHT22;38032;53.326;6.472;2023-05-10T13:53:28;19.60;99.90
52016;DHT22;38032;53.326;6.472;2023-05-10T13:55:54;19.70;99.90
52016;DHT22;38032;53.326;6.472;2023-05-10T13:58:20;19.70;99.90
52016;DHT22;38032;53.326;6.472;2023-05-10T14:00:46;19.80;99.90
52016;DHT22;38032;53.326;6.472;2023-05-10T14:03:12;19.80;99.90
52016;DHT22;38032;53.326;6.472;2023-05-10T14:05:38;19.80;99.90
52016;DHT22;38032;53.326;6.472;2023-05-10T14:08:04;19.90;99.90
52016;DHT22;38032;53.326;6.472;2023-05-10T14:10:30;19.80;99.90
52016;DHT22;38032;53.326;6.472;2023-05-10T14:12:55;19.70;99.90
52016;DHT22;38032;53.326;6.472;2023-05-10T14:15:21;19.60;99.90
52016;DHT22;38032;53.326;6.472;2023-05-10T14:17:47;19.60;99.90
52016;DHT22;38032;53.326;6.472;2023-05-10T14:20:13;19.50;99.90
52016;DHT22;38032;53.326;6.472;2023-05-10T14:22:39;19.30;99.90
52016;DHT22;38032;53.326;6.472;2023-05-10T14:25:06;19.40;99.90
52016;DHT22;38032;53.326;6.472;2023-05-10T14:27:32;19.40;99.90
52016;DHT22;38032;53.326;6.472;2023-05-10T14:29:58;19.40;99.90
52016;DHT22;38032;53.326;6.472;2023-05-10T14:32:24;19.50;99.90
52016;DHT22;38032;53.326;6.472;2023-05-10T14:34:50;19.60;99.90
52016;DHT22;38032;53.326;6.472;2023-05-10T14:37:16;19.70;99.90
52016;DHT22;38032;53.326;6.472;2023-05-10T14:39:42;19.70;99.90
52016;DHT22;38032;53.326;6.472;2023-05-10T14:42:08;19.80;99.90
52016;DHT22;38032;53.326;6.472;2023-05-10T14:44:34;19.80;99.90
52016;DHT22;38032;53.326;6.472;2023-05-10T14:47:00;19.90;99.90
52016;DHT22;38032;53.326;6.472;2023-05-10T14:49:26;19.90;99.90
52016;DHT22;38032;53.326;6.472;2023-05-10T14:51:53;20.00;99.90
52016;DHT22;38032;53.326;6.472;2023-05-10T14:54:18;20.00;99.90
52016;DHT22;38032;53.326;6.472;2023-05-10T14:56:44;20.00;99.90
52016;DHT22;38032;53.326;6.472;2023-05-10T14:59:10;20.00;99.90
52016;DHT22;38032;53.326;6.472;2023-05-10T15:01:36;19.90;99.90
52016;DHT22;38032;53.326;6.472;2023-05-10T15:04:04;19.80;99.90
52016;DHT22;38032;53.326;6.472;2023-05-10T15:06:31;19.80;99.90
52016;DHT22;38032;53.326;6.472;2023-05-10T15:08:57;19.70;99.90
52016;DHT22;38032;53.326;6.472;2023-05-10T15:11:23;19.80;99.90
52016;DHT22;38032;53.326;6.472;2023-05-10T15:13:49;19.70;99.90
52016;DHT22;38032;53.326;6.472;2023-05-10T15:16:15;19.80;99.90
52016;DHT22;38032;53.326;6.472;2023-05-10T15:18:41;19.80;99.90
52016;DHT22;38032;53.326;6.472;2023-05-10T15:21:07;19.70;99.90
52016;DHT22;38032;53.326;6.472;2023-05-10T15:23:32;19.70;99.90
52016;DHT22;38032;53.326;6.472;2023-05-10T15:25:59;19.60;99.90
52016;DHT22;38032;53.326;6.472;2023-05-10T15:28:25;19.60;99.90
52016;DHT22;38032;53.326;6.472;2023-05-10T15:30:51;19.50;99.90
52016;DHT22;38032;53.326;6.472;2023-05-10T15:33:17;19.50;99.90
52016;DHT22;38032;53.326;6.472;2023-05-10T15:35:43;19.40;99.90
52016;DHT22;38032;53.326;6.472;2023-05-10T15:38:09;19.40;99.90
52016;DHT22;38032;53.326;6.472;2023-05-10T15:40:35;19.30;99.90
52016;DHT22;38032;53.326;6.472;2023-05-10T15:43:01;19.20;99.90